sensor_id;sensor_type;location;lat;lon;timestamp;P1;durP1;ratioP1;P2;durP2;ratioP2
85218;SDS011;75606;40.152;44.490;2024-03-17T00:01:56;13.27;;;5.18;;
85218;SDS011;75606;40.152;44.490;2024-03-17T00:04:22;15.38;;;5.55;;
85218;SDS011;75606;40.152;44.490;2024-03-17T00:06:47;15.43;;;4.72;;
85218;SDS011;75606;40.152;44.490;2024-03-17T00:09:13;11.40;;;4.32;;
85218;SDS011;75606;40.152;44.490;2024-03-17T00:11:38;11.50;;;3.92;;
85218;SDS011;75606;40.152;44.490;2024-03-17T00:14:04;13.93;;;3.85;;
85218;SDS011;75606;40.152;44.490;2024-03-17T00:16:30;7.20;;;3.30;;
85218;SDS011;75606;40.152;44.490;2024-03-17T00:18:56;12.63;;;4.90;;
85218;SDS011;75606;40.152;44.490;2024-03-17T00:21:22;10.48;;;4.60;;
85218;SDS011;75606;40.152;44.490;2024-03-17T00:23:48;12.90;;;4.28;;
85218;SDS011;75606;40.152;44.490;2024-03-17T00:26:17;10.65;;;4.07;;
85218;SDS011;75606;40.152;44.490;2024-03-17T00:28:44;11.43;;;4.43;;
85218;SDS011;75606;40.152;44.490;2024-03-17T00:31:13;11.02;;;3.90;;
85218;SDS011;75606;40.152;44.490;2024-03-17T00:33:41;18.23;;;5.15;;
85218;SDS011;75606;40.152;44.490;2024-03-17T00:36:07;17.85;;;5.30;;
85218;SDS011;75606;40.152;44.490;2024-03-17T00:38:33;12.88;;;4.72;;
85218;SDS011;75606;40.152;44.490;2024-03-17T00:40:59;12.55;;;4.85;;
85218;SDS011;75606;40.152;44.490;2024-03-17T00:43:25;11.30;;;4.75;;
85218;SDS011;75606;40.152;44.490;2024-03-17T00:45:51;15.20;;;4.85;;
85218;SDS011;75606;40.152;44.490;2024-03-17T00:48:17;16.27;;;5.80;;
85218;SDS011;75606;40.152;44.490;2024-03-17T00:50:44;14.65;;;5.10;;
85218;SDS011;75606;40.152;44.490;2024-03-17T00:53:12;12.15;;;4.25;;
85218;SDS011;75606;40.152;44.490;2024-03-17T00:55:39;11.30;;;3.78;;
85218;SDS011;75606;40.152;44.490;2024-03-17T00:58:05;11.82;;;4.43;;
85218;SDS011;75606;40.152;44.490;2024-03-17T01:00:31;13.70;;;5.35;;
85218;SDS011;75606;40.152;44.490;2024-03-17T01:02:59;16.58;;;6.15;;
85218;SDS011;75606;40.152;44.490;2024-03-17T01:05:25;15.20;;;5.25;;
85218;SDS011;75606;40.152;44.490;2024-03-17T01:07:53;19.02;;;6.20;;
85218;SDS011;75606;40.152;44.490;2024-03-17T01:10:19;17.70;;;6.40;;
85218;SDS011;75606;40.152;44.490;2024-03-17T01:12:44;18.45;;;7.35;;
85218;SDS011;75606;40.152;44.490;2024-03-17T01:15:10;14.10;;;5.35;;
85218;SDS011;75606;40.152;44.490;2024-03-17T01:17:36;16.75;;;5.75;;
85218;SDS011;75606;40.152;44.490;2024-03-17T01:20:02;19.30;;;6.07;;
85218;SDS011;75606;40.152;44.490;2024-03-17T01:22:28;21.52;;;7.47;;
85218;SDS011;75606;40.152;44.490;2024-03-17T01:24:54;17.02;;;6.18;;
85218;SDS011;75606;40.152;44.490;2024-03-17T01:27:19;20.40;;;7.28;;
85218;SDS011;75606;40.152;44.490;2024-03-17T01:29:45;21.40;;;7.47;;
85218;SDS011;75606;40.152;44.490;2024-03-17T01:32:11;25.75;;;9.93;;
85218;SDS011;75606;40.152;44.490;2024-03-17T01:34:37;24.27;;;7.40;;
85218;SDS011;75606;40.152;44.490;2024-03-17T01:37:03;22.52;;;8.13;;
85218;SDS011;75606;40.152;44.490;2024-03-17T01:39:29;22.35;;;6.28;;
85218;SDS011;75606;40.152;44.490;2024-03-17T01:41:55;19.52;;;6.68;;
85218;SDS011;75606;40.152;44.490;2024-03-17T01:44:25;15.63;;;5.25;;
85218;SDS011;75606;40.152;44.490;2024-03-17T01:46:52;11.82;;;5.47;;
85218;SDS011;75606;40.152;44.490;2024-03-17T01:49:19;12.45;;;5.70;;
85218;SDS011;75606;40.152;44.490;2024-03-17T01:51:46;14.50;;;6.82;;
85218;SDS011;75606;40.152;44.490;2024-03-17T01:54:12;14.90;;;5.93;;
85218;SDS011;75606;40.152;44.490;2024-03-17T01:56:38;16.20;;;7.22;;
85218;SDS011;75606;40.152;44.490;2024-03-17T01:59:14;15.02;;;6.45;;
85218;SDS011;75606;40.152;44.490;2024-03-17T02:01:39;20.77;;;7.57;;
85218;SDS011;75606;40.152;44.490;2024-03-17T02:04:06;16.00;;;6.53;;
85218;SDS011;75606;40.152;44.490;2024-03-17T02:06:32;26.95;;;7.35;;
85218;SDS011;75606;40.152;44.490;2024-03-17T02:09:00;17.23;;;6.55;;
85218;SDS011;75606;40.152;44.490;2024-03-17T02:11:27;16.63;;;7.13;;
85218;SDS011;75606;40.152;44.490;2024-03-17T02:13:57;12.07;;;5.68;;
85218;SDS011;75606;40.152;44.490;2024-03-17T02:16:23;16.67;;;6.78;;
85218;SDS011;75606;40.152;44.490;2024-03-17T02:18:53;14.68;;;6.53;;
85218;SDS011;75606;40.152;44.490;2024-03-17T02:21:22;13.18;;;6.43;;
85218;SDS011;75606;40.152;44.490;2024-03-17T02:23:50;16.73;;;6.47;;
85218;SDS011;75606;40.152;44.490;2024-03-17T02:26:17;16.17;;;7.22;;
85218;SDS011;75606;40.152;44.490;2024-03-17T02:28:44;14.35;;;6.47;;
85218;SDS011;75606;40.152;44.490;2024-03-17T02:31:11;15.52;;;6.72;;
85218;SDS011;75606;40.152;44.490;2024-03-17T02:33:38;18.95;;;6.90;;
85218;SDS011;75606;40.152;44.490;2024-03-17T02:36:05;18.95;;;7.47;;
85218;SDS011;75606;40.152;44.490;2024-03-17T02:38:34;14.13;;;6.55;;
85218;SDS011;75606;40.152;44.490;2024-03-17T02:41:19;14.27;;;5.70;;
85218;SDS011;75606;40.152;44.490;2024-03-17T02:43:45;17.20;;;6.22;;
85218;SDS011;75606;40.152;44.490;2024-03-17T02:46:14;20.27;;;5.97;;
85218;SDS011;75606;40.152;44.490;2024-03-17T02:48:41;19.63;;;7.40;;
85218;SDS011;75606;40.152;44.490;2024-03-17T02:51:12;17.65;;;6.78;;
85218;SDS011;75606;40.152;44.490;2024-03-17T02:53:40;27.77;;;10.57;;
85218;SDS011;75606;40.152;44.490;2024-03-17T02:56:13;22.67;;;8.13;;
85218;SDS011;75606;40.152;44.490;2024-03-17T02:58:43;22.95;;;7.30;;
85218;SDS011;75606;40.152;44.490;2024-03-17T03:01:10;22.75;;;6.22;;
85218;SDS011;75606;40.152;44.490;2024-03-17T03:03:37;19.92;;;6.75;;
85218;SDS011;75606;40.152;44.490;2024-03-17T03:06:03;19.98;;;7.05;;
85218;SDS011;75606;40.152;44.490;2024-03-17T03:08:33;23.85;;;8.02;;
85218;SDS011;75606;40.152;44.490;2024-03-17T03:10:59;30.60;;;9.15;;
85218;SDS011;75606;40.152;44.490;2024-03-17T03:13:25;31.48;;;10.40;;
85218;SDS011;75606;40.152;44.490;2024-03-17T03:15:54;29.33;;;9.70;;
85218;SDS011;75606;40.152;44.490;2024-03-17T03:18:19;22.48;;;8.35;;
85218;SDS011;75606;40.152;44.490;2024-03-17T03:20:54;33.33;;;10.02;;
85218;SDS011;75606;40.152;44.490;2024-03-17T03:25:46;23.88;;;8.50;;
85218;SDS011;75606;40.152;44.490;2024-03-17T03:28:13;23.25;;;7.63;;
85218;SDS011;75606;40.152;44.490;2024-03-17T03:30:38;30.58;;;10.32;;
85218;SDS011;75606;40.152;44.490;2024-03-17T03:33:04;25.63;;;9.35;;
85218;SDS011;75606;40.152;44.490;2024-03-17T03:35:30;33.45;;;10.63;;
85218;SDS011;75606;40.152;44.490;2024-03-17T03:37:56;25.60;;;9.60;;
85218;SDS011;75606;40.152;44.490;2024-03-17T03:40:22;22.85;;;10.85;;
85218;SDS011;75606;40.152;44.490;2024-03-17T03:42:50;26.13;;;12.15;;
85218;SDS011;75606;40.152;44.490;2024-03-17T03:45:15;22.95;;;9.57;;
85218;SDS011;75606;40.152;44.490;2024-03-17T03:47:41;26.33;;;9.68;;
85218;SDS011;75606;40.152;44.490;2024-03-17T03:50:08;20.50;;;9.60;;
85218;SDS011;75606;40.152;44.490;2024-03-17T03:52:37;17.85;;;9.15;;
85218;SDS011;75606;40.152;44.490;2024-03-17T03:55:03;15.05;;;6.38;;
85218;SDS011;75606;40.152;44.490;2024-03-17T03:59:59;16.98;;;7.20;;
85218;SDS011;75606;40.152;44.490;2024-03-17T04:02:25;22.33;;;7.90;;
85218;SDS011;75606;40.152;44.490;2024-03-17T04:04:56;14.43;;;7.78;;
85218;SDS011;75606;40.152;44.490;2024-03-17T04:07:22;18.38;;;8.25;;
85218;SDS011;75606;40.152;44.490;2024-03-17T04:09:48;20.88;;;8.77;;
85218;SDS011;75606;40.152;44.490;2024-03-17T04:12:13;16.20;;;8.45;;
85218;SDS011;75606;40.152;44.490;2024-03-17T04:14:39;20.33;;;10.25;;
85218;SDS011;75606;40.152;44.490;2024-03-17T04:17:05;21.17;;;9.02;;
85218;SDS011;75606;40.152;44.490;2024-03-17T04:19:31;17.55;;;9.27;;
85218;SDS011;75606;40.152;44.490;2024-03-17T04:21:56;17.75;;;9.02;;
85218;SDS011;75606;40.152;44.490;2024-03-17T04:24:22;20.35;;;9.60;;
85218;SDS011;75606;40.152;44.490;2024-03-17T04:26:48;19.27;;;9.52;;
85218;SDS011;75606;40.152;44.490;2024-03-17T04:29:13;23.80;;;9.65;;
85218;SDS011;75606;40.152;44.490;2024-03-17T04:31:40;17.38;;;7.95;;
85218;SDS011;75606;40.152;44.490;2024-03-17T04:34:07;27.85;;;11.60;;
85218;SDS011;75606;40.152;44.490;2024-03-17T04:36:32;19.85;;;8.80;;
85218;SDS011;75606;40.152;44.490;2024-03-17T04:38:58;20.27;;;8.73;;
85218;SDS011;75606;40.152;44.490;2024-03-17T04:41:24;18.48;;;7.55;;
85218;SDS011;75606;40.152;44.490;2024-03-17T04:43:49;16.63;;;6.80;;
85218;SDS011;75606;40.152;44.490;2024-03-17T04:46:15;15.10;;;7.18;;
85218;SDS011;75606;40.152;44.490;2024-03-17T04:48:41;16.83;;;7.85;;
85218;SDS011;75606;40.152;44.490;2024-03-17T04:51:06;17.17;;;7.35;;
85218;SDS011;75606;40.152;44.490;2024-03-17T04:53:32;12.77;;;6.15;;
85218;SDS011;75606;40.152;44.490;2024-03-17T04:56:01;11.20;;;6.35;;
85218;SDS011;75606;40.152;44.490;2024-03-17T04:58:30;10.60;;;5.88;;
85218;SDS011;75606;40.152;44.490;2024-03-17T05:01:08;12.60;;;6.43;;
85218;SDS011;75606;40.152;44.490;2024-03-17T05:06:00;13.70;;;6.07;;
85218;SDS011;75606;40.152;44.490;2024-03-17T05:08:27;13.55;;;6.55;;
85218;SDS011;75606;40.152;44.490;2024-03-17T05:10:57;10.50;;;6.22;;
85218;SDS011;75606;40.152;44.490;2024-03-17T05:13:24;14.38;;;5.95;;
85218;SDS011;75606;40.152;44.490;2024-03-17T05:15:50;11.45;;;5.30;;
85218;SDS011;75606;40.152;44.490;2024-03-17T05:18:16;18.25;;;8.23;;
85218;SDS011;75606;40.152;44.490;2024-03-17T05:20:42;17.67;;;8.02;;
85218;SDS011;75606;40.152;44.490;2024-03-17T05:23:07;13.88;;;7.47;;
85218;SDS011;75606;40.152;44.490;2024-03-17T05:25:33;19.58;;;8.32;;
85218;SDS011;75606;40.152;44.490;2024-03-17T05:28:02;17.80;;;8.98;;
85218;SDS011;75606;40.152;44.490;2024-03-17T05:30:29;20.52;;;9.88;;
85218;SDS011;75606;40.152;44.490;2024-03-17T05:32:55;24.80;;;12.55;;
85218;SDS011;75606;40.152;44.490;2024-03-17T05:35:21;22.25;;;10.27;;
85218;SDS011;75606;40.152;44.490;2024-03-17T05:37:48;26.70;;;10.55;;
85218;SDS011;75606;40.152;44.490;2024-03-17T05:40:14;23.23;;;9.93;;
85218;SDS011;75606;40.152;44.490;2024-03-17T05:42:42;20.85;;;8.00;;
85218;SDS011;75606;40.152;44.490;2024-03-17T05:45:09;21.35;;;8.23;;
85218;SDS011;75606;40.152;44.490;2024-03-17T05:47:37;17.98;;;8.73;;
85218;SDS011;75606;40.152;44.490;2024-03-17T05:50:04;22.95;;;10.75;;
85218;SDS011;75606;40.152;44.490;2024-03-17T05:52:32;20.23;;;9.00;;
85218;SDS011;75606;40.152;44.490;2024-03-17T05:54:58;17.52;;;8.98;;
85218;SDS011;75606;40.152;44.490;2024-03-17T05:57:23;14.05;;;7.55;;
85218;SDS011;75606;40.152;44.490;2024-03-17T05:59:49;16.45;;;7.93;;
85218;SDS011;75606;40.152;44.490;2024-03-17T06:02:15;17.05;;;7.00;;
85218;SDS011;75606;40.152;44.490;2024-03-17T06:04:41;10.43;;;6.18;;
85218;SDS011;75606;40.152;44.490;2024-03-17T06:07:07;14.82;;;7.30;;
85218;SDS011;75606;40.152;44.490;2024-03-17T06:09:34;16.98;;;7.15;;
85218;SDS011;75606;40.152;44.490;2024-03-17T06:12:00;11.52;;;6.95;;
85218;SDS011;75606;40.152;44.490;2024-03-17T06:14:26;12.02;;;7.13;;
85218;SDS011;75606;40.152;44.490;2024-03-17T06:16:51;13.82;;;6.00;;
85218;SDS011;75606;40.152;44.490;2024-03-17T06:19:17;21.25;;;9.63;;
85218;SDS011;75606;40.152;44.490;2024-03-17T06:21:43;11.63;;;6.25;;
85218;SDS011;75606;40.152;44.490;2024-03-17T06:24:08;11.68;;;6.10;;
85218;SDS011;75606;40.152;44.490;2024-03-17T06:26:34;16.40;;;7.60;;
85218;SDS011;75606;40.152;44.490;2024-03-17T06:29:00;10.90;;;6.82;;
85218;SDS011;75606;40.152;44.490;2024-03-17T06:31:26;16.45;;;7.45;;
85218;SDS011;75606;40.152;44.490;2024-03-17T06:33:55;10.50;;;6.30;;
85218;SDS011;75606;40.152;44.490;2024-03-17T06:36:21;10.05;;;6.68;;
85218;SDS011;75606;40.152;44.490;2024-03-17T06:38:46;10.70;;;6.10;;
85218;SDS011;75606;40.152;44.490;2024-03-17T06:41:13;13.57;;;8.02;;
85218;SDS011;75606;40.152;44.490;2024-03-17T06:43:40;11.88;;;8.10;;
85218;SDS011;75606;40.152;44.490;2024-03-17T06:46:08;16.77;;;9.65;;
85218;SDS011;75606;40.152;44.490;2024-03-17T06:48:34;12.63;;;8.10;;
85218;SDS011;75606;40.152;44.490;2024-03-17T06:51:00;12.80;;;7.53;;
85218;SDS011;75606;40.152;44.490;2024-03-17T06:53:26;20.20;;;11.38;;
85218;SDS011;75606;40.152;44.490;2024-03-17T06:55:58;14.63;;;9.93;;
85218;SDS011;75606;40.152;44.490;2024-03-17T06:58:25;19.10;;;12.52;;
85218;SDS011;75606;40.152;44.490;2024-03-17T07:00:58;22.33;;;12.15;;
85218;SDS011;75606;40.152;44.490;2024-03-17T07:03:27;20.10;;;12.55;;
85218;SDS011;75606;40.152;44.490;2024-03-17T07:05:55;24.85;;;14.45;;
85218;SDS011;75606;40.152;44.490;2024-03-17T07:08:22;22.30;;;11.60;;
85218;SDS011;75606;40.152;44.490;2024-03-17T07:10:58;20.60;;;9.77;;
85218;SDS011;75606;40.152;44.490;2024-03-17T07:13:24;14.07;;;8.38;;
85218;SDS011;75606;40.152;44.490;2024-03-17T07:15:53;15.50;;;9.18;;
85218;SDS011;75606;40.152;44.490;2024-03-17T07:18:19;16.60;;;8.93;;
85218;SDS011;75606;40.152;44.490;2024-03-17T07:20:45;16.02;;;10.32;;
85218;SDS011;75606;40.152;44.490;2024-03-17T07:23:13;12.38;;;7.85;;
85218;SDS011;75606;40.152;44.490;2024-03-17T07:25:40;12.20;;;6.78;;
85218;SDS011;75606;40.152;44.490;2024-03-17T07:28:08;8.82;;;5.40;;
85218;SDS011;75606;40.152;44.490;2024-03-17T07:30:35;5.93;;;3.60;;
85218;SDS011;75606;40.152;44.490;2024-03-17T07:33:00;3.50;;;2.67;;
85218;SDS011;75606;40.152;44.490;2024-03-17T07:35:26;4.32;;;3.55;;
85218;SDS011;75606;40.152;44.490;2024-03-17T07:37:52;6.88;;;4.30;;
85218;SDS011;75606;40.152;44.490;2024-03-17T07:40:20;4.13;;;2.92;;
85218;SDS011;75606;40.152;44.490;2024-03-17T07:42:45;5.88;;;3.60;;
85218;SDS011;75606;40.152;44.490;2024-03-17T07:45:20;6.32;;;3.85;;
85218;SDS011;75606;40.152;44.490;2024-03-17T07:47:50;4.22;;;3.05;;
85218;SDS011;75606;40.152;44.490;2024-03-17T07:50:19;4.95;;;3.25;;
85218;SDS011;75606;40.152;44.490;2024-03-17T07:52:44;4.93;;;2.78;;
85218;SDS011;75606;40.152;44.490;2024-03-17T07:55:10;3.60;;;2.80;;
85218;SDS011;75606;40.152;44.490;2024-03-17T07:57:38;6.13;;;3.28;;
85218;SDS011;75606;40.152;44.490;2024-03-17T08:00:07;5.80;;;4.25;;
85218;SDS011;75606;40.152;44.490;2024-03-17T08:02:47;6.03;;;3.33;;
85218;SDS011;75606;40.152;44.490;2024-03-17T08:05:13;5.32;;;3.47;;
85218;SDS011;75606;40.152;44.490;2024-03-17T08:07:39;5.03;;;3.42;;
85218;SDS011;75606;40.152;44.490;2024-03-17T08:10:10;4.68;;;2.90;;
85218;SDS011;75606;40.152;44.490;2024-03-17T08:15:30;2.10;;;1.58;;
85218;SDS011;75606;40.152;44.490;2024-03-17T08:17:57;4.30;;;2.35;;
85218;SDS011;75606;40.152;44.490;2024-03-17T08:20:22;6.13;;;5.13;;
85218;SDS011;75606;40.152;44.490;2024-03-17T08:22:48;5.70;;;3.90;;
85218;SDS011;75606;40.152;44.490;2024-03-17T08:25:14;5.20;;;4.22;;
85218;SDS011;75606;40.152;44.490;2024-03-17T08:27:39;6.05;;;3.75;;
85218;SDS011;75606;40.152;44.490;2024-03-17T08:30:05;4.60;;;3.00;;
85218;SDS011;75606;40.152;44.490;2024-03-17T08:32:32;4.65;;;3.28;;
85218;SDS011;75606;40.152;44.490;2024-03-17T08:34:58;3.95;;;3.15;;
85218;SDS011;75606;40.152;44.490;2024-03-17T08:37:23;4.55;;;3.03;;
85218;SDS011;75606;40.152;44.490;2024-03-17T08:39:50;5.28;;;3.10;;
85218;SDS011;75606;40.152;44.490;2024-03-17T08:42:17;4.00;;;2.88;;
85218;SDS011;75606;40.152;44.490;2024-03-17T08:44:45;3.63;;;2.17;;
85218;SDS011;75606;40.152;44.490;2024-03-17T08:47:12;4.40;;;2.22;;
85218;SDS011;75606;40.152;44.490;2024-03-17T08:49:38;5.13;;;3.60;;
85218;SDS011;75606;40.152;44.490;2024-03-17T08:52:03;4.88;;;3.20;;
85218;SDS011;75606;40.152;44.490;2024-03-17T08:54:29;4.90;;;3.65;;
85218;SDS011;75606;40.152;44.490;2024-03-17T08:56:55;4.57;;;3.22;;
85218;SDS011;75606;40.152;44.490;2024-03-17T08:59:20;3.53;;;2.97;;
85218;SDS011;75606;40.152;44.490;2024-03-17T09:01:46;4.82;;;2.00;;
85218;SDS011;75606;40.152;44.490;2024-03-17T09:04:12;3.08;;;2.10;;
85218;SDS011;75606;40.152;44.490;2024-03-17T09:06:38;3.17;;;2.67;;
85218;SDS011;75606;40.152;44.490;2024-03-17T09:09:03;3.25;;;2.47;;
85218;SDS011;75606;40.152;44.490;2024-03-17T09:11:31;4.82;;;3.30;;
85218;SDS011;75606;40.152;44.490;2024-03-17T09:13:56;3.30;;;3.00;;
85218;SDS011;75606;40.152;44.490;2024-03-17T09:16:23;3.75;;;2.90;;
85218;SDS011;75606;40.152;44.490;2024-03-17T09:18:51;5.18;;;4.00;;
85218;SDS011;75606;40.152;44.490;2024-03-17T09:21:17;6.85;;;4.20;;
85218;SDS011;75606;40.152;44.490;2024-03-17T09:23:43;6.88;;;4.35;;
85218;SDS011;75606;40.152;44.490;2024-03-17T09:26:09;4.55;;;3.63;;
85218;SDS011;75606;40.152;44.490;2024-03-17T09:28:40;5.47;;;4.40;;
85218;SDS011;75606;40.152;44.490;2024-03-17T09:31:06;3.70;;;3.33;;
85218;SDS011;75606;40.152;44.490;2024-03-17T09:33:32;3.58;;;2.95;;
85218;SDS011;75606;40.152;44.490;2024-03-17T09:36:00;7.80;;;4.38;;
85218;SDS011;75606;40.152;44.490;2024-03-17T09:38:27;4.97;;;3.33;;
85218;SDS011;75606;40.152;44.490;2024-03-17T09:40:56;8.75;;;7.75;;
85218;SDS011;75606;40.152;44.490;2024-03-17T09:43:26;13.43;;;11.10;;
85218;SDS011;75606;40.152;44.490;2024-03-17T09:45:57;4.68;;;4.18;;
85218;SDS011;75606;40.152;44.490;2024-03-17T09:48:26;3.00;;;2.70;;
85218;SDS011;75606;40.152;44.490;2024-03-17T09:50:54;7.07;;;4.07;;
85218;SDS011;75606;40.152;44.490;2024-03-17T09:53:27;4.38;;;3.97;;
85218;SDS011;75606;40.152;44.490;2024-03-17T09:55:56;6.03;;;4.35;;
85218;SDS011;75606;40.152;44.490;2024-03-17T09:58:33;4.60;;;4.00;;
85218;SDS011;75606;40.152;44.490;2024-03-17T10:01:00;6.15;;;5.07;;
85218;SDS011;75606;40.152;44.490;2024-03-17T10:03:45;8.55;;;4.80;;
85218;SDS011;75606;40.152;44.490;2024-03-17T10:06:20;6.82;;;4.25;;
85218;SDS011;75606;40.152;44.490;2024-03-17T10:08:49;6.90;;;4.68;;
85218;SDS011;75606;40.152;44.490;2024-03-17T10:11:19;9.05;;;3.83;;
85218;SDS011;75606;40.152;44.490;2024-03-17T10:13:46;4.65;;;2.75;;
85218;SDS011;75606;40.152;44.490;2024-03-17T10:16:25;3.75;;;3.03;;
85218;SDS011;75606;40.152;44.490;2024-03-17T10:21:33;3.97;;;2.83;;
85218;SDS011;75606;40.152;44.490;2024-03-17T10:26:52;3.50;;;3.00;;
85218;SDS011;75606;40.152;44.490;2024-03-17T10:29:26;3.58;;;3.22;;
85218;SDS011;75606;40.152;44.490;2024-03-17T10:31:56;4.07;;;3.28;;
85218;SDS011;75606;40.152;44.490;2024-03-17T10:34:24;5.88;;;4.15;;
85218;SDS011;75606;40.152;44.490;2024-03-17T10:36:51;6.82;;;5.25;;
85218;SDS011;75606;40.152;44.490;2024-03-17T10:39:26;5.85;;;3.63;;
85218;SDS011;75606;40.152;44.490;2024-03-17T10:41:57;8.75;;;4.80;;
85218;SDS011;75606;40.152;44.490;2024-03-17T10:44:26;6.80;;;4.28;;
85218;SDS011;75606;40.152;44.490;2024-03-17T10:46:54;3.97;;;3.35;;
85218;SDS011;75606;40.152;44.490;2024-03-17T10:49:23;4.95;;;3.58;;
85218;SDS011;75606;40.152;44.490;2024-03-17T10:51:55;3.85;;;3.28;;
85218;SDS011;75606;40.152;44.490;2024-03-17T10:54:24;6.97;;;4.60;;
85218;SDS011;75606;40.152;44.490;2024-03-17T10:56:57;5.45;;;4.65;;
85218;SDS011;75606;40.152;44.490;2024-03-17T10:59:39;6.68;;;4.85;;
85218;SDS011;75606;40.152;44.490;2024-03-17T11:02:17;5.70;;;5.10;;
85218;SDS011;75606;40.152;44.490;2024-03-17T11:04:51;7.18;;;5.97;;
85218;SDS011;75606;40.152;44.490;2024-03-17T11:07:17;6.38;;;4.78;;
85218;SDS011;75606;40.152;44.490;2024-03-17T11:09:44;6.28;;;4.82;;
85218;SDS011;75606;40.152;44.490;2024-03-17T11:17:49;11.32;;;8.18;;
85218;SDS011;75606;40.152;44.490;2024-03-17T11:20:24;12.38;;;9.07;;
85218;SDS011;75606;40.152;44.490;2024-03-17T11:22:55;17.35;;;13.73;;
85218;SDS011;75606;40.152;44.490;2024-03-17T11:27:51;10.23;;;6.05;;
85218;SDS011;75606;40.152;44.490;2024-03-17T11:47:00;7.50;;;5.68;;
85218;SDS011;75606;40.152;44.490;2024-03-17T11:49:32;6.68;;;5.50;;
85218;SDS011;75606;40.152;44.490;2024-03-17T11:52:09;9.85;;;6.00;;
85218;SDS011;75606;40.152;44.490;2024-03-17T11:54:39;10.65;;;5.15;;
85218;SDS011;75606;40.152;44.490;2024-03-17T11:57:12;7.65;;;5.35;;
85218;SDS011;75606;40.152;44.490;2024-03-17T11:59:44;7.93;;;6.13;;
85218;SDS011;75606;40.152;44.490;2024-03-17T12:02:19;8.82;;;6.10;;
85218;SDS011;75606;40.152;44.490;2024-03-17T12:04:49;6.47;;;4.97;;
85218;SDS011;75606;40.152;44.490;2024-03-17T12:07:16;7.07;;;5.07;;
85218;SDS011;75606;40.152;44.490;2024-03-17T12:09:43;7.40;;;5.18;;
85218;SDS011;75606;40.152;44.490;2024-03-17T12:12:16;5.60;;;3.85;;
85218;SDS011;75606;40.152;44.490;2024-03-17T12:15:01;9.02;;;5.53;;
85218;SDS011;75606;40.152;44.490;2024-03-17T12:17:28;7.75;;;5.43;;
85218;SDS011;75606;40.152;44.490;2024-03-17T12:19:54;13.20;;;6.82;;
85218;SDS011;75606;40.152;44.490;2024-03-17T12:22:24;5.97;;;4.45;;
85218;SDS011;75606;40.152;44.490;2024-03-17T12:27:21;5.90;;;4.25;;
85218;SDS011;75606;40.152;44.490;2024-03-17T12:29:50;8.00;;;6.47;;
85218;SDS011;75606;40.152;44.490;2024-03-17T12:32:17;11.70;;;6.53;;
85218;SDS011;75606;40.152;44.490;2024-03-17T12:34:46;13.10;;;9.20;;
85218;SDS011;75606;40.152;44.490;2024-03-17T12:37:21;10.20;;;6.63;;
85218;SDS011;75606;40.152;44.490;2024-03-17T12:40:20;9.45;;;6.07;;
85218;SDS011;75606;40.152;44.490;2024-03-17T12:42:47;8.52;;;7.03;;
85218;SDS011;75606;40.152;44.490;2024-03-17T12:45:14;11.68;;;6.68;;
85218;SDS011;75606;40.152;44.490;2024-03-17T12:47:46;8.23;;;5.22;;
85218;SDS011;75606;40.152;44.490;2024-03-17T12:50:13;8.55;;;6.53;;
85218;SDS011;75606;40.152;44.490;2024-03-17T12:52:40;8.32;;;6.40;;
85218;SDS011;75606;40.152;44.490;2024-03-17T12:55:06;9.30;;;6.50;;
85218;SDS011;75606;40.152;44.490;2024-03-17T12:57:53;6.40;;;4.88;;
85218;SDS011;75606;40.152;44.490;2024-03-17T13:01:03;5.95;;;4.35;;
85218;SDS011;75606;40.152;44.490;2024-03-17T13:03:33;8.07;;;5.25;;
85218;SDS011;75606;40.152;44.490;2024-03-17T13:06:08;15.68;;;8.52;;
85218;SDS011;75606;40.152;44.490;2024-03-17T13:08:35;7.20;;;5.70;;
85218;SDS011;75606;40.152;44.490;2024-03-17T13:11:01;7.70;;;5.43;;
85218;SDS011;75606;40.152;44.490;2024-03-17T13:13:29;8.38;;;6.50;;
85218;SDS011;75606;40.152;44.490;2024-03-17T13:15:54;9.60;;;6.50;;
85218;SDS011;75606;40.152;44.490;2024-03-17T13:18:20;9.20;;;6.88;;
85218;SDS011;75606;40.152;44.490;2024-03-17T13:20:46;8.48;;;6.35;;
85218;SDS011;75606;40.152;44.490;2024-03-17T13:23:15;9.60;;;6.60;;
85218;SDS011;75606;40.152;44.490;2024-03-17T13:25:40;9.85;;;6.78;;
85218;SDS011;75606;40.152;44.490;2024-03-17T13:28:08;8.75;;;6.38;;
85218;SDS011;75606;40.152;44.490;2024-03-17T13:30:35;8.65;;;5.75;;
85218;SDS011;75606;40.152;44.490;2024-03-17T13:35:36;6.68;;;4.63;;
85218;SDS011;75606;40.152;44.490;2024-03-17T13:38:06;9.15;;;6.20;;
85218;SDS011;75606;40.152;44.490;2024-03-17T13:42:58;11.75;;;6.53;;
85218;SDS011;75606;40.152;44.490;2024-03-17T13:45:25;9.73;;;6.95;;
85218;SDS011;75606;40.152;44.490;2024-03-17T13:48:00;10.55;;;7.40;;
85218;SDS011;75606;40.152;44.490;2024-03-17T13:50:29;10.40;;;6.72;;
85218;SDS011;75606;40.152;44.490;2024-03-17T13:52:55;10.85;;;8.07;;
85218;SDS011;75606;40.152;44.490;2024-03-17T13:55:23;10.93;;;7.78;;
85218;SDS011;75606;40.152;44.490;2024-03-17T13:57:51;14.73;;;7.88;;
85218;SDS011;75606;40.152;44.490;2024-03-17T14:00:23;13.02;;;8.40;;
85218;SDS011;75606;40.152;44.490;2024-03-17T14:02:50;10.73;;;6.00;;
85218;SDS011;75606;40.152;44.490;2024-03-17T14:05:19;14.77;;;9.05;;
85218;SDS011;75606;40.152;44.490;2024-03-17T14:07:46;16.70;;;10.27;;
85218;SDS011;75606;40.152;44.490;2024-03-17T14:10:13;8.70;;;5.78;;
85218;SDS011;75606;40.152;44.490;2024-03-17T14:12:50;8.45;;;5.95;;
85218;SDS011;75606;40.152;44.490;2024-03-17T14:15:16;8.30;;;5.30;;
85218;SDS011;75606;40.152;44.490;2024-03-17T14:17:43;9.02;;;6.72;;
85218;SDS011;75606;40.152;44.490;2024-03-17T14:20:09;11.60;;;7.78;;
85218;SDS011;75606;40.152;44.490;2024-03-17T14:22:36;12.68;;;8.43;;
85218;SDS011;75606;40.152;44.490;2024-03-17T14:25:08;10.63;;;5.93;;
85218;SDS011;75606;40.152;44.490;2024-03-17T14:27:43;9.50;;;6.47;;
85218;SDS011;75606;40.152;44.490;2024-03-17T14:30:29;11.13;;;5.90;;
85218;SDS011;75606;40.152;44.490;2024-03-17T14:32:56;11.88;;;5.85;;
85218;SDS011;75606;40.152;44.490;2024-03-17T14:35:21;9.73;;;5.95;;
85218;SDS011;75606;40.152;44.490;2024-03-17T14:37:47;11.13;;;6.80;;
85218;SDS011;75606;40.152;44.490;2024-03-17T14:40:17;11.05;;;6.07;;
85218;SDS011;75606;40.152;44.490;2024-03-17T14:42:49;9.55;;;6.05;;
85218;SDS011;75606;40.152;44.490;2024-03-17T14:45:16;12.80;;;8.15;;
85218;SDS011;75606;40.152;44.490;2024-03-17T14:47:42;12.35;;;6.63;;
85218;SDS011;75606;40.152;44.490;2024-03-17T14:50:09;16.95;;;8.13;;
85218;SDS011;75606;40.152;44.490;2024-03-17T14:52:40;11.23;;;6.55;;
85218;SDS011;75606;40.152;44.490;2024-03-17T14:55:07;9.20;;;5.45;;
85218;SDS011;75606;40.152;44.490;2024-03-17T14:57:36;8.85;;;5.63;;
85218;SDS011;75606;40.152;44.490;2024-03-17T15:00:11;10.32;;;5.85;;
85218;SDS011;75606;40.152;44.490;2024-03-17T15:02:45;9.40;;;5.38;;
85218;SDS011;75606;40.152;44.490;2024-03-17T15:05:12;9.77;;;6.20;;
85218;SDS011;75606;40.152;44.490;2024-03-17T15:07:39;8.68;;;5.05;;
85218;SDS011;75606;40.152;44.490;2024-03-17T15:10:06;12.90;;;7.30;;
85218;SDS011;75606;40.152;44.490;2024-03-17T15:12:32;21.65;;;9.80;;
85218;SDS011;75606;40.152;44.490;2024-03-17T15:15:01;13.45;;;7.45;;
85218;SDS011;75606;40.152;44.490;2024-03-17T15:17:27;18.77;;;8.25;;
85218;SDS011;75606;40.152;44.490;2024-03-17T15:19:53;21.90;;;9.68;;